This is the latest recevied weather packets stored in our database for station/object KO4MMQ-10. If no packets are shown the sender has not sent any weather packets the latest 10 day(s).
| Time | Temp. | Humidity | Pressure | Rain* | Wind** | Luminosity | Snow |
|---|---|---|---|---|---|---|---|
| 1777779508 | 12.78° C | 61% | 1019.2 hPa | 0 mm | - | - | - |
| 1777778908 | 13.33° C | 60% | 1019.2 hPa | 0 mm | - | - | - |
| 1777778308 | 13.33° C | 60% | 1019.2 hPa | 0 mm | - | - | - |
| 1777777708 | 13.33° C | 58% | 1019.2 hPa | 0 mm | - | - | - |
| 1777777108 | 13.33° C | 57% | 1018.9 hPa | 0 mm | - | - | - |
| 1777776508 | 12.78° C | 58% | 1018.8 hPa | 0 mm | - | - | - |
| 1777775908 | 12.78° C | 60% | 1018.6 hPa | 0 mm | - | - | - |
| 1777771708 | 15° C | 49% | 1017.7 hPa | 0 mm | - | - | - |
| 1777770508 | 16.11° C | 46% | 1017.3 hPa | 0 mm | - | - | - |
| 1777769308 | 17.22° C | 44% | 1017.1 hPa | 0 mm | - | - | - |
| 1777768709 | 17.78° C | 42% | 1017.1 hPa | 0 mm | - | - | - |
| 1777767508 | 18.33° C | 42% | 1016.8 hPa | 0 mm | - | - | - |
| 1777766908 | 18.89° C | 39% | 1016.5 hPa | 0 mm | - | - | - |
| 1777766308 | 18.89° C | 38% | 1016.5 hPa | 0 mm | - | - | - |
| 1777765708 | 19.44° C | 36% | 1016.5 hPa | 0 mm | - | - | - |
| 1777751308 | 21.67° C | 37% | 1016.7 hPa | 0 mm | - | - | - |
| 1777750108 | 21.67° C | 36% | 1016.9 hPa | 0 mm | - | - | - |
| 1777747108 | 21.11° C | 36% | 1017.4 hPa | 0 mm | - | - | - |
| 1777738708 | 20° C | 37% | 1018.3 hPa | 0 mm | - | - | - |
| 1777738108 | 19.44° C | 37% | 1018.4 hPa | 0 mm | - | - | - |
| 1777737507 | 18.89° C | 37% | 1018.5 hPa | 0 mm | - | - | - |
| 1777734508 | 16.67° C | 45% | 1018.2 hPa | 0 mm | - | - | - |
| 1777733908 | 16.11° C | 48% | 1018.3 hPa | 0 mm | - | - | - |
| 1777733308 | 15.56° C | 48% | 1018.1 hPa | 0 mm | - | - | - |
| 1777732107 | 14.44° C | 58% | 1018 hPa | 0 mm | - | - | - |
* Rain latest hour (hover to see other rain measurements)
** Current wind speed in m/s (hover to see current wind gust speed)